sensor_id;sensor_type;location;lat;lon;timestamp;pressure;altitude;pressure_sealevel;temperature;humidity
59939;BME280;45801;51.810;19.444;2023-05-07T00:00:09;99576.80;;;8.32;73.31
59939;BME280;45801;51.810;19.444;2023-05-07T00:02:55;99576.83;;;8.33;73.40
59939;BME280;45801;51.810;19.444;2023-05-07T00:05:23;99578.27;;;8.34;73.41
59939;BME280;45801;51.810;19.444;2023-05-07T00:07:49;99576.65;;;8.33;73.18
59939;BME280;45801;51.810;19.444;2023-05-07T00:10:16;99579.09;;;8.33;73.24
59939;BME280;45801;51.810;19.444;2023-05-07T00:12:43;99577.48;;;8.32;73.43
59939;BME280;45801;51.810;19.444;2023-05-07T00:15:10;99580.42;;;8.31;73.26
59939;BME280;45801;51.810;19.444;2023-05-07T00:17:36;99580.73;;;8.34;73.17
59939;BME280;45801;51.810;19.444;2023-05-07T00:20:04;99577.93;;;8.37;73.31
59939;BME280;45801;51.810;19.444;2023-05-07T00:22:31;99581.84;;;8.38;73.21
59939;BME280;45801;51.810;19.444;2023-05-07T00:24:59;99582.88;;;8.38;72.79
59939;BME280;45801;51.810;19.444;2023-05-07T00:27:26;99582.55;;;8.38;72.68
59939;BME280;45801;51.810;19.444;2023-05-07T00:29:52;99585.61;;;8.40;72.75
59939;BME280;45801;51.810;19.444;2023-05-07T00:32:19;99587.23;;;8.38;72.97
59939;BME280;45801;51.810;19.444;2023-05-07T00:34:45;99587.23;;;8.35;72.75
59939;BME280;45801;51.810;19.444;2023-05-07T00:37:12;99589.77;;;8.30;72.95
59939;BME280;45801;51.810;19.444;2023-05-07T00:39:38;99592.92;;;8.27;72.87
59939;BME280;45801;51.810;19.444;2023-05-07T00:42:05;99593.98;;;8.22;72.46
59939;BME280;45801;51.810;19.444;2023-05-07T00:44:31;99596.19;;;8.14;72.65
59939;BME280;45801;51.810;19.444;2023-05-07T00:46:58;99600.20;;;8.12;72.91
59939;BME280;45801;51.810;19.444;2023-05-07T00:49:43;99602.75;;;8.10;72.83
59939;BME280;45801;51.810;19.444;2023-05-07T00:52:16;99605.21;;;8.05;73.09
59939;BME280;45801;51.810;19.444;2023-05-07T00:54:43;99604.17;;;8.02;73.06
59939;BME280;45801;51.810;19.444;2023-05-07T00:57:10;99604.30;;;7.99;73.35
59939;BME280;45801;51.810;19.444;2023-05-07T00:59:37;99603.46;;;7.99;73.03
59939;BME280;45801;51.810;19.444;2023-05-07T01:02:05;99602.58;;;7.99;73.23
59939;BME280;45801;51.810;19.444;2023-05-07T01:04:32;99601.38;;;7.99;73.27
59939;BME280;45801;51.810;19.444;2023-05-07T01:06:59;99602.25;;;7.99;72.89
59939;BME280;45801;51.810;19.444;2023-05-07T01:09:27;99602.14;;;7.97;72.98
59939;BME280;45801;51.810;19.444;2023-05-07T01:11:55;99603.48;;;7.96;72.95
59939;BME280;45801;51.810;19.444;2023-05-07T01:14:23;99601.17;;;7.98;73.43
59939;BME280;45801;51.810;19.444;2023-05-07T01:16:52;99599.83;;;8.00;73.54
59939;BME280;45801;51.810;19.444;2023-05-07T01:19:20;99598.55;;;7.98;73.19
59939;BME280;45801;51.810;19.444;2023-05-07T01:21:48;99602.90;;;7.98;73.05
59939;BME280;45801;51.810;19.444;2023-05-07T01:24:15;99605.20;;;8.02;72.83
59939;BME280;45801;51.810;19.444;2023-05-07T01:26:43;99602.88;;;8.10;72.88
59939;BME280;45801;51.810;19.444;2023-05-07T01:29:10;99609.19;;;8.13;73.30
59939;BME280;45801;51.810;19.444;2023-05-07T01:31:39;99614.11;;;8.14;73.38
59939;BME280;45801;51.810;19.444;2023-05-07T01:34:08;99613.63;;;8.14;72.81
59939;BME280;45801;51.810;19.444;2023-05-07T01:36:37;99610.83;;;8.11;72.56
59939;BME280;45801;51.810;19.444;2023-05-07T01:39:05;99614.88;;;8.09;72.93
59939;BME280;45801;51.810;19.444;2023-05-07T01:41:32;99616.67;;;8.07;72.91
59939;BME280;45801;51.810;19.444;2023-05-07T01:43:59;99616.71;;;8.05;72.90
59939;BME280;45801;51.810;19.444;2023-05-07T01:46:27;99620.69;;;8.01;72.88
59939;BME280;45801;51.810;19.444;2023-05-07T01:48:54;99624.52;;;8.01;72.81
59939;BME280;45801;51.810;19.444;2023-05-07T01:51:21;99624.55;;;8.01;72.91
59939;BME280;45801;51.810;19.444;2023-05-07T01:53:49;99621.70;;;8.00;73.28
59939;BME280;45801;51.810;19.444;2023-05-07T01:56:18;99624.41;;;7.99;73.36
59939;BME280;45801;51.810;19.444;2023-05-07T01:58:45;99622.02;;;7.97;73.13
59939;BME280;45801;51.810;19.444;2023-05-07T02:01:13;99623.89;;;7.96;73.36
59939;BME280;45801;51.810;19.444;2023-05-07T02:03:40;99626.52;;;7.96;73.01
59939;BME280;45801;51.810;19.444;2023-05-07T02:06:06;99631.79;;;7.97;72.70
59939;BME280;45801;51.810;19.444;2023-05-07T02:08:33;99633.00;;;7.97;72.60
59939;BME280;45801;51.810;19.444;2023-05-07T02:10:59;99633.35;;;7.97;73.01
59939;BME280;45801;51.810;19.444;2023-05-07T02:13:38;99636.80;;;7.99;72.87
59939;BME280;45801;51.810;19.444;2023-05-07T02:16:05;99636.09;;;7.93;72.64
59939;BME280;45801;51.810;19.444;2023-05-07T02:18:31;99638.31;;;7.89;72.84
59939;BME280;45801;51.810;19.444;2023-05-07T02:20:58;99639.69;;;7.89;73.14
59939;BME280;45801;51.810;19.444;2023-05-07T02:23:25;99641.53;;;7.91;73.49
59939;BME280;45801;51.810;19.444;2023-05-07T02:25:51;99645.41;;;7.91;73.39
59939;BME280;45801;51.810;19.444;2023-05-07T02:28:18;99647.45;;;7.90;72.96
59939;BME280;45801;51.810;19.444;2023-05-07T02:30:45;99650.58;;;7.87;73.42
59939;BME280;45801;51.810;19.444;2023-05-07T02:33:11;99646.10;;;7.89;73.04
59939;BME280;45801;51.810;19.444;2023-05-07T02:35:43;99648.90;;;7.92;72.96
59939;BME280;45801;51.810;19.444;2023-05-07T02:38:09;99648.80;;;7.93;72.95
59939;BME280;45801;51.810;19.444;2023-05-07T02:40:37;99655.23;;;7.92;72.65
59939;BME280;45801;51.810;19.444;2023-05-07T02:43:06;99654.77;;;7.91;72.79
59939;BME280;45801;51.810;19.444;2023-05-07T02:45:33;99649.64;;;7.89;72.95
59939;BME280;45801;51.810;19.444;2023-05-07T02:47:59;99646.64;;;7.89;72.89
59939;BME280;45801;51.810;19.444;2023-05-07T02:50:26;99641.85;;;7.87;72.69
59939;BME280;45801;51.810;19.444;2023-05-07T02:52:53;99646.64;;;7.83;72.69
59939;BME280;45801;51.810;19.444;2023-05-07T02:55:20;99646.63;;;7.83;72.92
59939;BME280;45801;51.810;19.444;2023-05-07T02:57:47;99651.90;;;7.83;73.02
59939;BME280;45801;51.810;19.444;2023-05-07T03:00:15;99654.22;;;7.84;72.93
59939;BME280;45801;51.810;19.444;2023-05-07T03:02:42;99653.95;;;7.83;72.59
59939;BME280;45801;51.810;19.444;2023-05-07T03:05:08;99654.61;;;7.79;72.60
59939;BME280;45801;51.810;19.444;2023-05-07T03:07:36;99654.48;;;7.77;72.72
59939;BME280;45801;51.810;19.444;2023-05-07T03:10:03;99652.88;;;7.76;72.54
59939;BME280;45801;51.810;19.444;2023-05-07T03:12:30;99652.73;;;7.77;72.65
59939;BME280;45801;51.810;19.444;2023-05-07T03:14:57;99653.82;;;7.78;72.29
59939;BME280;45801;51.810;19.444;2023-05-07T03:17:24;99655.91;;;7.80;71.99
59939;BME280;45801;51.810;19.444;2023-05-07T03:19:50;99656.77;;;7.80;72.75
59939;BME280;45801;51.810;19.444;2023-05-07T03:22:17;99657.52;;;7.81;72.64
59939;BME280;45801;51.810;19.444;2023-05-07T03:24:43;99661.88;;;7.81;72.71
59939;BME280;45801;51.810;19.444;2023-05-07T03:27:09;99664.07;;;7.83;72.56
59939;BME280;45801;51.810;19.444;2023-05-07T03:29:36;99671.80;;;7.83;72.61
59939;BME280;45801;51.810;19.444;2023-05-07T03:32:02;99673.92;;;7.84;72.81
59939;BME280;45801;51.810;19.444;2023-05-07T03:34:29;99674.35;;;7.80;72.61
59939;BME280;45801;51.810;19.444;2023-05-07T03:36:55;99675.84;;;7.78;73.05
59939;BME280;45801;51.810;19.444;2023-05-07T03:39:22;99680.45;;;7.77;73.31
59939;BME280;45801;51.810;19.444;2023-05-07T03:41:49;99686.18;;;7.76;72.86
59939;BME280;45801;51.810;19.444;2023-05-07T03:44:15;99686.13;;;7.78;72.76
59939;BME280;45801;51.810;19.444;2023-05-07T03:46:42;99687.02;;;7.79;72.69
59939;BME280;45801;51.810;19.444;2023-05-07T03:49:08;99688.05;;;7.78;72.36
59939;BME280;45801;51.810;19.444;2023-05-07T03:51:35;99690.14;;;7.75;72.61
59939;BME280;45801;51.810;19.444;2023-05-07T03:54:02;99691.20;;;7.73;72.58
59939;BME280;45801;51.810;19.444;2023-05-07T03:56:29;99696.52;;;7.74;72.30
59939;BME280;45801;51.810;19.444;2023-05-07T03:58:55;99699.30;;;7.77;72.32
59939;BME280;45801;51.810;19.444;2023-05-07T04:01:22;99701.19;;;7.77;72.13
59939;BME280;45801;51.810;19.444;2023-05-07T04:03:48;99703.48;;;7.77;72.25
59939;BME280;45801;51.810;19.444;2023-05-07T04:06:18;99705.42;;;7.77;72.37
59939;BME280;45801;51.810;19.444;2023-05-07T04:08:44;99706.91;;;7.76;72.39
59939;BME280;45801;51.810;19.444;2023-05-07T04:11:11;99708.88;;;7.74;72.36
59939;BME280;45801;51.810;19.444;2023-05-07T04:13:37;99715.02;;;7.72;72.31
59939;BME280;45801;51.810;19.444;2023-05-07T04:16:05;99718.51;;;7.72;72.32
59939;BME280;45801;51.810;19.444;2023-05-07T04:18:33;99717.25;;;7.71;72.14
59939;BME280;45801;51.810;19.444;2023-05-07T04:20:59;99718.77;;;7.71;72.43
59939;BME280;45801;51.810;19.444;2023-05-07T04:23:26;99722.98;;;7.71;72.72
59939;BME280;45801;51.810;19.444;2023-05-07T04:25:52;99727.32;;;7.73;72.80
59939;BME280;45801;51.810;19.444;2023-05-07T04:28:20;99729.94;;;7.76;72.60
59939;BME280;45801;51.810;19.444;2023-05-07T04:30:47;99734.02;;;7.77;72.49
59939;BME280;45801;51.810;19.444;2023-05-07T04:33:14;99736.52;;;7.78;72.80
59939;BME280;45801;51.810;19.444;2023-05-07T04:35:43;99738.62;;;7.81;72.46
59939;BME280;45801;51.810;19.444;2023-05-07T04:38:09;99739.60;;;7.83;72.37
59939;BME280;45801;51.810;19.444;2023-05-07T04:40:37;99747.11;;;7.83;72.35
59939;BME280;45801;51.810;19.444;2023-05-07T04:43:03;99746.80;;;7.84;72.40
59939;BME280;45801;51.810;19.444;2023-05-07T04:45:30;99746.55;;;7.86;72.34
59939;BME280;45801;51.810;19.444;2023-05-07T04:47:57;99751.27;;;7.88;72.08
59939;BME280;45801;51.810;19.444;2023-05-07T04:50:23;99751.75;;;7.90;72.01
59939;BME280;45801;51.810;19.444;2023-05-07T04:52:50;99751.08;;;7.91;72.08
59939;BME280;45801;51.810;19.444;2023-05-07T04:55:17;99752.16;;;7.91;72.00
59939;BME280;45801;51.810;19.444;2023-05-07T04:57:44;99756.81;;;7.93;71.59
59939;BME280;45801;51.810;19.444;2023-05-07T05:00:11;99760.98;;;7.93;71.58
59939;BME280;45801;51.810;19.444;2023-05-07T05:02:40;99765.09;;;7.92;71.78
59939;BME280;45801;51.810;19.444;2023-05-07T05:05:07;99764.68;;;7.91;71.88
59939;BME280;45801;51.810;19.444;2023-05-07T05:07:34;99767.02;;;7.92;71.77
59939;BME280;45801;51.810;19.444;2023-05-07T05:10:01;99772.49;;;7.93;71.56
59939;BME280;45801;51.810;19.444;2023-05-07T05:12:29;99773.17;;;7.93;71.92
59939;BME280;45801;51.810;19.444;2023-05-07T05:14:57;99771.35;;;7.92;72.42
59939;BME280;45801;51.810;19.444;2023-05-07T05:17:25;99772.76;;;7.89;72.11
59939;BME280;45801;51.810;19.444;2023-05-07T05:19:51;99774.67;;;7.89;71.97
59939;BME280;45801;51.810;19.444;2023-05-07T05:22:18;99774.95;;;7.88;72.29
59939;BME280;45801;51.810;19.444;2023-05-07T05:24:44;99780.17;;;7.88;72.16
59939;BME280;45801;51.810;19.444;2023-05-07T05:27:11;99785.45;;;7.88;72.20
59939;BME280;45801;51.810;19.444;2023-05-07T05:29:37;99786.75;;;7.90;71.89
59939;BME280;45801;51.810;19.444;2023-05-07T05:32:04;99788.88;;;7.93;72.04
59939;BME280;45801;51.810;19.444;2023-05-07T05:34:30;99787.31;;;7.93;72.15
59939;BME280;45801;51.810;19.444;2023-05-07T05:36:58;99792.02;;;7.93;72.10
59939;BME280;45801;51.810;19.444;2023-05-07T05:39:25;99793.09;;;7.94;71.94
59939;BME280;45801;51.810;19.444;2023-05-07T05:41:52;99795.57;;;7.94;71.86
59939;BME280;45801;51.810;19.444;2023-05-07T05:44:18;99801.50;;;7.94;71.87
59939;BME280;45801;51.810;19.444;2023-05-07T05:46:47;99806.34;;;7.96;71.96
59939;BME280;45801;51.810;19.444;2023-05-07T05:49:13;99807.91;;;7.99;72.03
59939;BME280;45801;51.810;19.444;2023-05-07T05:51:40;99809.69;;;7.99;72.04
59939;BME280;45801;51.810;19.444;2023-05-07T05:54:06;99809.23;;;7.98;71.74
59939;BME280;45801;51.810;19.444;2023-05-07T05:56:33;99808.20;;;7.95;71.88
59939;BME280;45801;51.810;19.444;2023-05-07T05:58:59;99808.36;;;7.95;71.94
59939;BME280;45801;51.810;19.444;2023-05-07T06:01:26;99813.52;;;7.94;71.86
59939;BME280;45801;51.810;19.444;2023-05-07T06:03:52;99815.77;;;7.93;71.99
59939;BME280;45801;51.810;19.444;2023-05-07T06:06:19;99815.21;;;7.95;71.96
59939;BME280;45801;51.810;19.444;2023-05-07T06:08:46;99812.67;;;7.97;71.80
59939;BME280;45801;51.810;19.444;2023-05-07T06:11:13;99810.34;;;7.96;71.96
59939;BME280;45801;51.810;19.444;2023-05-07T06:13:39;99811.44;;;7.97;72.14
59939;BME280;45801;51.810;19.444;2023-05-07T06:16:06;99813.47;;;7.99;71.73
59939;BME280;45801;51.810;19.444;2023-05-07T06:18:33;99813.80;;;7.98;71.46
59939;BME280;45801;51.810;19.444;2023-05-07T06:20:59;99814.61;;;7.97;71.49
59939;BME280;45801;51.810;19.444;2023-05-07T06:23:26;99813.80;;;7.95;71.45
59939;BME280;45801;51.810;19.444;2023-05-07T06:25:52;99818.06;;;7.97;71.79
59939;BME280;45801;51.810;19.444;2023-05-07T06:28:19;99819.23;;;7.99;72.22
59939;BME280;45801;51.810;19.444;2023-05-07T06:30:45;99819.01;;;8.01;72.19
59939;BME280;45801;51.810;19.444;2023-05-07T06:33:12;99823.11;;;8.02;72.17
59939;BME280;45801;51.810;19.444;2023-05-07T06:35:38;99830.56;;;8.01;72.19
59939;BME280;45801;51.810;19.444;2023-05-07T06:38:05;99831.82;;;8.05;72.07
59939;BME280;45801;51.810;19.444;2023-05-07T06:40:31;99833.92;;;8.08;72.04
59939;BME280;45801;51.810;19.444;2023-05-07T06:42:58;99833.37;;;8.10;72.04
59939;BME280;45801;51.810;19.444;2023-05-07T06:45:24;99828.92;;;8.11;71.60
59939;BME280;45801;51.810;19.444;2023-05-07T06:47:51;99829.48;;;8.12;71.45
59939;BME280;45801;51.810;19.444;2023-05-07T06:50:18;99828.11;;;8.15;71.44
59939;BME280;45801;51.810;19.444;2023-05-07T06:52:44;99829.39;;;8.19;71.59
59939;BME280;45801;51.810;19.444;2023-05-07T06:55:11;99834.28;;;8.22;71.79
59939;BME280;45801;51.810;19.444;2023-05-07T06:57:38;99835.89;;;8.22;72.02
59939;BME280;45801;51.810;19.444;2023-05-07T07:00:05;99839.90;;;8.22;71.92
59939;BME280;45801;51.810;19.444;2023-05-07T07:02:33;99844.77;;;8.22;71.69
59939;BME280;45801;51.810;19.444;2023-05-07T07:04:59;99845.91;;;8.24;71.85
59939;BME280;45801;51.810;19.444;2023-05-07T07:07:26;99849.05;;;8.26;71.63
59939;BME280;45801;51.810;19.444;2023-05-07T07:09:52;99851.67;;;8.26;71.38
59939;BME280;45801;51.810;19.444;2023-05-07T07:12:19;99856.08;;;8.24;71.30
59939;BME280;45801;51.810;19.444;2023-05-07T07:14:45;99856.42;;;8.24;71.77
59939;BME280;45801;51.810;19.444;2023-05-07T07:17:12;99858.98;;;8.26;71.67
59939;BME280;45801;51.810;19.444;2023-05-07T07:19:38;99859.50;;;8.29;71.51
59939;BME280;45801;51.810;19.444;2023-05-07T07:22:05;99856.35;;;8.31;71.18
59939;BME280;45801;51.810;19.444;2023-05-07T07:24:33;99861.27;;;8.35;71.20
59939;BME280;45801;51.810;19.444;2023-05-07T07:26:59;99866.99;;;8.37;71.01
59939;BME280;45801;51.810;19.444;2023-05-07T07:29:26;99868.40;;;8.38;71.13
59939;BME280;45801;51.810;19.444;2023-05-07T07:31:53;99869.62;;;8.40;71.21
59939;BME280;45801;51.810;19.444;2023-05-07T07:34:19;99872.20;;;8.42;71.06
59939;BME280;45801;51.810;19.444;2023-05-07T07:36:46;99880.69;;;8.44;70.51
59939;BME280;45801;51.810;19.444;2023-05-07T07:39:13;99882.92;;;8.43;70.60
59939;BME280;45801;51.810;19.444;2023-05-07T07:41:39;99883.59;;;8.41;70.09
59939;BME280;45801;51.810;19.444;2023-05-07T07:44:07;99884.46;;;8.40;70.38
59939;BME280;45801;51.810;19.444;2023-05-07T07:46:35;99882.35;;;8.40;70.10
59939;BME280;45801;51.810;19.444;2023-05-07T07:49:01;99881.48;;;8.40;70.24
59939;BME280;45801;51.810;19.444;2023-05-07T07:51:28;99887.00;;;8.42;70.03
59939;BME280;45801;51.810;19.444;2023-05-07T07:53:54;99892.05;;;8.41;69.74
59939;BME280;45801;51.810;19.444;2023-05-07T07:56:21;99894.49;;;8.44;70.01
59939;BME280;45801;51.810;19.444;2023-05-07T07:58:47;99900.73;;;8.43;70.02
59939;BME280;45801;51.810;19.444;2023-05-07T08:01:14;99904.50;;;8.42;70.35
59939;BME280;45801;51.810;19.444;2023-05-07T08:03:40;99906.89;;;8.44;70.05
59939;BME280;45801;51.810;19.444;2023-05-07T08:06:07;99904.23;;;8.46;70.13
59939;BME280;45801;51.810;19.444;2023-05-07T08:08:34;99903.19;;;8.49;69.97
59939;BME280;45801;51.810;19.444;2023-05-07T08:11:01;99905.71;;;8.50;69.71
59939;BME280;45801;51.810;19.444;2023-05-07T08:13:28;99904.77;;;8.52;70.00
59939;BME280;45801;51.810;19.444;2023-05-07T08:15:54;99908.45;;;8.55;69.68
59939;BME280;45801;51.810;19.444;2023-05-07T08:18:21;99913.64;;;8.54;69.39
59939;BME280;45801;51.810;19.444;2023-05-07T08:20:47;99911.79;;;8.50;69.15
59939;BME280;45801;51.810;19.444;2023-05-07T08:23:14;99917.05;;;8.45;69.21
59939;BME280;45801;51.810;19.444;2023-05-07T08:25:40;99915.66;;;8.42;69.12
59939;BME280;45801;51.810;19.444;2023-05-07T08:28:08;99916.50;;;8.42;69.17
59939;BME280;45801;51.810;19.444;2023-05-07T08:30:35;99916.21;;;8.42;69.11
59939;BME280;45801;51.810;19.444;2023-05-07T08:33:01;99916.08;;;8.45;69.00
59939;BME280;45801;51.810;19.444;2023-05-07T08:35:28;99920.46;;;8.49;69.39
59939;BME280;45801;51.810;19.444;2023-05-07T08:37:55;99927.42;;;8.51;69.26
59939;BME280;45801;51.810;19.444;2023-05-07T08:40:25;99932.02;;;8.52;69.05
59939;BME280;45801;51.810;19.444;2023-05-07T08:42:55;99935.02;;;8.53;69.26
59939;BME280;45801;51.810;19.444;2023-05-07T08:45:23;99934.95;;;8.57;69.69
59939;BME280;45801;51.810;19.444;2023-05-07T08:47:58;99936.95;;;8.64;69.81
59939;BME280;45801;51.810;19.444;2023-05-07T08:50:25;99940.94;;;8.69;69.70
59939;BME280;45801;51.810;19.444;2023-05-07T08:52:52;99943.52;;;8.72;69.26
59939;BME280;45801;51.810;19.444;2023-05-07T08:55:19;99942.26;;;8.71;68.69
59939;BME280;45801;51.810;19.444;2023-05-07T08:57:46;99946.05;;;8.70;69.00
59939;BME280;45801;51.810;19.444;2023-05-07T09:00:15;99947.80;;;8.73;69.25
59939;BME280;45801;51.810;19.444;2023-05-07T09:02:42;99952.83;;;8.80;69.73
59939;BME280;45801;51.810;19.444;2023-05-07T09:05:08;99957.66;;;8.88;69.49
59939;BME280;45801;51.810;19.444;2023-05-07T09:07:35;99958.56;;;8.94;68.46
59939;BME280;45801;51.810;19.444;2023-05-07T09:10:05;99955.16;;;8.96;67.70
59939;BME280;45801;51.810;19.444;2023-05-07T09:12:32;99959.03;;;8.96;67.91
59939;BME280;45801;51.810;19.444;2023-05-07T09:15:01;99963.09;;;8.97;67.60
59939;BME280;45801;51.810;19.444;2023-05-07T09:17:29;99967.39;;;8.99;67.66
59939;BME280;45801;51.810;19.444;2023-05-07T09:19:55;99969.57;;;9.00;67.60
59939;BME280;45801;51.810;19.444;2023-05-07T09:22:22;99969.20;;;9.03;68.16
59939;BME280;45801;51.810;19.444;2023-05-07T09:24:49;99967.80;;;9.06;68.14
59939;BME280;45801;51.810;19.444;2023-05-07T09:27:17;99970.14;;;9.09;68.36
59939;BME280;45801;51.810;19.444;2023-05-07T09:29:44;99969.62;;;9.13;68.18
59939;BME280;45801;51.810;19.444;2023-05-07T09:32:11;99975.73;;;9.12;67.65
59939;BME280;45801;51.810;19.444;2023-05-07T09:34:37;99974.42;;;9.14;67.68
59939;BME280;45801;51.810;19.444;2023-05-07T09:37:04;99971.70;;;9.21;67.94
59939;BME280;45801;51.810;19.444;2023-05-07T09:39:45;99969.60;;;9.30;67.86
59939;BME280;45801;51.810;19.444;2023-05-07T09:42:12;99967.64;;;9.41;68.15
59939;BME280;45801;51.810;19.444;2023-05-07T09:44:41;99970.14;;;9.48;67.57
59939;BME280;45801;51.810;19.444;2023-05-07T09:47:10;99971.95;;;9.55;67.75
59939;BME280;45801;51.810;19.444;2023-05-07T09:49:39;99972.52;;;9.58;67.63
59939;BME280;45801;51.810;19.444;2023-05-07T09:52:09;99972.27;;;9.60;67.08
59939;BME280;45801;51.810;19.444;2023-05-07T09:54:37;99970.70;;;9.63;67.11
59939;BME280;45801;51.810;19.444;2023-05-07T09:57:07;99976.73;;;9.64;66.81
59939;BME280;45801;51.810;19.444;2023-05-07T09:59:37;99981.08;;;9.64;66.94
59939;BME280;45801;51.810;19.444;2023-05-07T10:02:04;99983.98;;;9.66;66.83
59939;BME280;45801;51.810;19.444;2023-05-07T10:04:32;99985.88;;;9.68;66.36
59939;BME280;45801;51.810;19.444;2023-05-07T10:06:58;99983.73;;;9.70;66.78
59939;BME280;45801;51.810;19.444;2023-05-07T10:09:26;99984.19;;;9.75;67.07
59939;BME280;45801;51.810;19.444;2023-05-07T10:11:53;99985.50;;;9.83;67.04
59939;BME280;45801;51.810;19.444;2023-05-07T10:14:21;99983.50;;;9.90;66.93
59939;BME280;45801;51.810;19.444;2023-05-07T10:16:47;99982.73;;;10.01;66.88
59939;BME280;45801;51.810;19.444;2023-05-07T10:19:14;99981.09;;;10.31;66.99
59939;BME280;45801;51.810;19.444;2023-05-07T10:21:58;99980.21;;;10.62;67.60
59939;BME280;45801;51.810;19.444;2023-05-07T10:24:29;99981.52;;;10.86;65.97
59939;BME280;45801;51.810;19.444;2023-05-07T10:26:56;99986.70;;;10.95;65.91
59939;BME280;45801;51.810;19.444;2023-05-07T10:29:33;99987.54;;;10.97;65.09
59939;BME280;45801;51.810;19.444;2023-05-07T10:34:40;99982.91;;;10.93;64.90
59939;BME280;45801;51.810;19.444;2023-05-07T10:37:09;99986.76;;;11.03;65.03
59939;BME280;45801;51.810;19.444;2023-05-07T10:39:36;99988.60;;;11.11;64.94
59939;BME280;45801;51.810;19.444;2023-05-07T10:42:10;99985.16;;;11.22;64.90
59939;BME280;45801;51.810;19.444;2023-05-07T10:44:37;99988.27;;;11.28;64.08
59939;BME280;45801;51.810;19.444;2023-05-07T10:47:09;99990.45;;;11.30;63.62
59939;BME280;45801;51.810;19.444;2023-05-07T10:52:19;99990.95;;;11.36;63.70
59939;BME280;45801;51.810;19.444;2023-05-07T10:54:47;99991.59;;;11.34;62.33
59939;BME280;45801;51.810;19.444;2023-05-07T10:59:58;99990.38;;;11.25;62.50
59939;BME280;45801;51.810;19.444;2023-05-07T11:05:31;99996.34;;;11.18;62.66
59939;BME280;45801;51.810;19.444;2023-05-07T11:07:59;99993.50;;;11.21;63.21
59939;BME280;45801;51.810;19.444;2023-05-07T11:13:16;99992.06;;;11.30;62.47
59939;BME280;45801;51.810;19.444;2023-05-07T11:15:46;100000.63;;;11.26;62.00
59939;BME280;45801;51.810;19.444;2023-05-07T11:18:17;100004.94;;;11.18;61.03
59939;BME280;45801;51.810;19.444;2023-05-07T11:20:53;100005.33;;;11.09;61.72
59939;BME280;45801;51.810;19.444;2023-05-07T11:26:04;100008.31;;;10.99;61.92
59939;BME280;45801;51.810;19.444;2023-05-07T11:28:36;100011.45;;;10.95;62.16
59939;BME280;45801;51.810;19.444;2023-05-07T11:31:03;100012.11;;;10.94;62.72
59939;BME280;45801;51.810;19.444;2023-05-07T11:33:33;100014.55;;;10.98;63.25
59939;BME280;45801;51.810;19.444;2023-05-07T11:36:01;100016.85;;;11.05;62.56
59939;BME280;45801;51.810;19.444;2023-05-07T11:38:30;100018.81;;;11.11;63.06
59939;BME280;45801;51.810;19.444;2023-05-07T11:40:58;100022.02;;;11.16;62.72
59939;BME280;45801;51.810;19.444;2023-05-07T11:43:27;100023.16;;;11.21;62.38
59939;BME280;45801;51.810;19.444;2023-05-07T11:45:53;100025.00;;;11.26;62.56
59939;BME280;45801;51.810;19.444;2023-05-07T11:48:21;100028.91;;;11.27;61.75
59939;BME280;45801;51.810;19.444;2023-05-07T11:51:00;100026.42;;;11.23;61.37
59939;BME280;45801;51.810;19.444;2023-05-07T11:53:36;100027.41;;;11.19;60.79
59939;BME280;45801;51.810;19.444;2023-05-07T11:56:10;100029.38;;;11.16;61.34
59939;BME280;45801;51.810;19.444;2023-05-07T11:58:39;100031.55;;;11.17;61.07
59939;BME280;45801;51.810;19.444;2023-05-07T12:01:10;100029.70;;;11.25;61.47
59939;BME280;45801;51.810;19.444;2023-05-07T12:03:40;100031.60;;;11.32;61.13
59939;BME280;45801;51.810;19.444;2023-05-07T12:06:10;100029.98;;;11.37;60.83
59939;BME280;45801;51.810;19.444;2023-05-07T12:08:39;100032.73;;;11.43;61.38
59939;BME280;45801;51.810;19.444;2023-05-07T12:11:13;100032.52;;;11.49;60.75
59939;BME280;45801;51.810;19.444;2023-05-07T12:13:40;100031.89;;;11.50;60.25
59939;BME280;45801;51.810;19.444;2023-05-07T12:16:08;100035.88;;;11.49;60.07
59939;BME280;45801;51.810;19.444;2023-05-07T12:18:35;100036.40;;;11.49;60.07
59939;BME280;45801;51.810;19.444;2023-05-07T12:21:04;100038.08;;;11.47;58.69
59939;BME280;45801;51.810;19.444;2023-05-07T12:23:33;100040.66;;;11.40;58.44
59939;BME280;45801;51.810;19.444;2023-05-07T12:26:00;100045.67;;;11.29;58.84
59939;BME280;45801;51.810;19.444;2023-05-07T12:28:27;100049.16;;;11.22;58.93
59939;BME280;45801;51.810;19.444;2023-05-07T12:30:54;100053.55;;;11.12;58.89
59939;BME280;45801;51.810;19.444;2023-05-07T12:33:25;100054.77;;;11.06;59.47
59939;BME280;45801;51.810;19.444;2023-05-07T12:35:54;100056.27;;;11.04;59.39
59939;BME280;45801;51.810;19.444;2023-05-07T12:38:21;100059.01;;;11.03;58.96
59939;BME280;45801;51.810;19.444;2023-05-07T12:40:50;100063.11;;;11.05;59.73
59939;BME280;45801;51.810;19.444;2023-05-07T12:43:27;100059.95;;;11.04;59.57
59939;BME280;45801;51.810;19.444;2023-05-07T12:45:56;100063.08;;;11.04;59.27
59939;BME280;45801;51.810;19.444;2023-05-07T12:48:23;100067.44;;;11.04;59.71
59939;BME280;45801;51.810;19.444;2023-05-07T12:50:51;100069.33;;;11.00;58.83
59939;BME280;45801;51.810;19.444;2023-05-07T12:53:20;100072.07;;;10.95;58.89
59939;BME280;45801;51.810;19.444;2023-05-07T12:55:49;100076.95;;;10.95;59.34
59939;BME280;45801;51.810;19.444;2023-05-07T12:58:28;100074.19;;;10.98;59.42
59939;BME280;45801;51.810;19.444;2023-05-07T13:00:56;100073.34;;;11.02;59.67
59939;BME280;45801;51.810;19.444;2023-05-07T13:03:30;100074.69;;;11.05;58.87
59939;BME280;45801;51.810;19.444;2023-05-07T13:06:00;100076.43;;;11.04;58.41
59939;BME280;45801;51.810;19.444;2023-05-07T13:08:29;100079.25;;;11.05;59.01
59939;BME280;45801;51.810;19.444;2023-05-07T13:11:00;100079.28;;;11.06;58.77
59939;BME280;45801;51.810;19.444;2023-05-07T13:13:36;100080.51;;;11.02;58.54
59939;BME280;45801;51.810;19.444;2023-05-07T13:16:05;100082.63;;;10.99;58.45